Steelville, Missouri
Current Conditions -  °F | °C
As of 6:53 AM on Friday 19 Dec 2014 (Local Time) from KVIH Reporting Station
Moderate Fog Moderate Fog  
Wind Chill: 26°   Ceiling: 200
Heat Index: 32°   Visibility: 0.5mi
Dew Point: 31°   Wind: 6mph
Humidity: 96%   Direction: 80°E
Pressure: 30.23"   Gusts: NA
Location:  37.97°N, 91.35°W
Report Text: KVIH 191253Z AUTO 08005KT 1/2SM FG VV002 00/M01 A3023 RMK AO2 SLP248 T00001006
Loading
Personal Weather Stations






























Interactive Weather Map New forecast layout! Learn more

10-Day Weather Forecast

Advertisements
Track Severe Weather on mobile